createdAt,value
2022-11-20T00:01:47.960Z,1.60
2022-11-20T00:04:33.247Z,1.62
2022-11-20T00:07:18.821Z,1.61
2022-11-20T00:10:04.485Z,1.56
2022-11-20T00:12:49.838Z,1.67
2022-11-20T00:15:35.540Z,1.50
2022-11-20T00:18:20.896Z,1.48
2022-11-20T00:21:08.807Z,1.53
2022-11-20T00:23:56.023Z,1.54
2022-11-20T00:26:41.487Z,1.54
2022-11-20T00:29:26.957Z,1.55
2022-11-20T00:32:12.579Z,1.62
2022-11-20T00:34:57.911Z,1.54
2022-11-20T00:37:43.524Z,1.44
2022-11-20T00:40:28.828Z,1.36
2022-11-20T00:43:14.393Z,1.25
2022-11-20T00:46:04.742Z,1.45
2022-11-20T00:48:50.838Z,1.42
2022-11-20T00:51:36.345Z,1.38
2022-11-20T00:54:21.597Z,1.40
2022-11-20T00:57:07.313Z,1.48
2022-11-20T00:59:52.813Z,1.43
2022-11-20T01:02:38.279Z,1.55
2022-11-20T01:05:23.550Z,1.64
2022-11-20T01:08:09.479Z,1.54
2022-11-20T01:10:59.961Z,1.62
2022-11-20T01:13:47.248Z,1.56
2022-11-20T01:16:35.955Z,1.66
2022-11-20T01:19:24.190Z,1.66
2022-11-20T01:22:10.295Z,1.61
2022-11-20T01:24:55.647Z,1.56
2022-11-20T01:27:41.333Z,1.57
2022-11-20T01:30:27.104Z,1.64
2022-11-20T01:33:12.535Z,1.59
2022-11-20T01:36:05.585Z,1.48
2022-11-20T01:38:55.459Z,1.57
2022-11-20T01:42:02.614Z,1.63
2022-11-20T01:44:58.748Z,1.44
2022-11-20T01:47:47.398Z,1.46
2022-11-20T01:50:34.690Z,1.49
2022-11-20T01:53:24.355Z,1.44
2022-11-20T01:56:12.335Z,1.38
2022-11-20T01:59:02.779Z,1.44
2022-11-20T02:01:48.727Z,1.40
2022-11-20T02:04:34.068Z,1.44
2022-11-20T02:07:20.910Z,1.40
2022-11-20T02:10:07.029Z,1.31
2022-11-20T02:13:11.337Z,1.44
2022-11-20T02:15:56.868Z,1.46
2022-11-20T02:18:44.297Z,1.51
2022-11-20T02:22:15.919Z,1.54
2022-11-20T02:25:04.627Z,1.43
2022-11-20T02:27:50.774Z,1.45
2022-11-20T02:30:36.179Z,1.45
2022-11-20T02:33:21.873Z,1.44
2022-11-20T02:36:12.462Z,1.18
2022-11-20T02:38:57.713Z,1.18
2022-11-20T02:41:43.508Z,1.02
2022-11-20T02:44:29.212Z,0.90
2022-11-20T02:47:14.828Z,0.91
2022-11-20T02:50:00.351Z,0.85
2022-11-20T02:52:45.945Z,0.81
2022-11-20T02:55:31.469Z,0.66
2022-11-20T02:58:17.052Z,0.62
2022-11-20T03:01:02.406Z,0.64
2022-11-20T03:03:49.550Z,0.37
2022-11-20T03:06:35.396Z,0.46
2022-11-20T03:09:20.910Z,0.30
2022-11-20T03:12:06.769Z,0.32
2022-11-20T03:14:53.451Z,0.23
2022-11-20T03:17:39.245Z,0.35
2022-11-20T03:20:25.105Z,0.43
2022-11-20T03:23:10.578Z,0.44
2022-11-20T03:25:56.105Z,0.31
2022-11-20T03:28:43.348Z,0.34
2022-11-20T03:31:34.430Z,0.30
2022-11-20T03:34:19.776Z,0.35
2022-11-20T03:37:05.272Z,0.25
2022-11-20T03:39:50.586Z,0.27
2022-11-20T03:42:47.780Z,0.35
2022-11-20T03:45:33.096Z,0.44
2022-11-20T03:48:18.566Z,0.38
2022-11-20T03:51:15.640Z,0.43
2022-11-20T03:54:04.555Z,0.44
2022-11-20T03:56:49.963Z,0.46
2022-11-20T03:59:35.550Z,0.24
2022-11-20T04:02:21.073Z,0.47
2022-11-20T04:05:06.867Z,0.51
2022-11-20T04:07:52.496Z,0.61
2022-11-20T04:10:38.540Z,0.59
2022-11-20T04:13:24.123Z,0.69
2022-11-20T04:16:10.678Z,0.57
2022-11-20T04:18:58.026Z,0.63
2022-11-20T04:21:44.838Z,0.66
2022-11-20T04:24:30.290Z,0.68
2022-11-20T04:27:15.636Z,0.62
2022-11-20T04:30:01.100Z,0.56
2022-11-20T04:32:46.699Z,0.56
2022-11-20T04:35:35.193Z,0.57
2022-11-20T04:38:20.646Z,0.52
2022-11-20T04:41:08.081Z,0.48
2022-11-20T04:44:00.014Z,0.52
2022-11-20T04:46:45.633Z,0.65
2022-11-20T04:49:32.440Z,0.62
2022-11-20T04:52:18.116Z,0.74
2022-11-20T04:55:04.027Z,0.55
2022-11-20T04:57:52.229Z,0.67
2022-11-20T05:00:37.959Z,0.72
2022-11-20T05:03:23.325Z,0.69
2022-11-20T05:06:10.516Z,0.76
2022-11-20T05:08:55.938Z,0.62
2022-11-20T05:11:41.534Z,0.61
2022-11-20T05:14:27.042Z,0.66
2022-11-20T05:17:13.341Z,0.59
2022-11-20T05:19:59.021Z,0.72
2022-11-20T05:22:45.045Z,0.66
2022-11-20T05:25:30.665Z,0.63
2022-11-20T05:28:16.241Z,0.61
2022-11-20T05:31:10.031Z,0.68
2022-11-20T05:33:57.485Z,0.73
2022-11-20T05:36:43.210Z,0.71
2022-11-20T05:39:28.672Z,0.64
2022-11-20T05:42:31.856Z,0.63
2022-11-20T05:45:17.464Z,0.66
2022-11-20T05:48:02.898Z,0.70
2022-11-20T05:50:49.091Z,0.54
2022-11-20T05:53:35.815Z,0.74
2022-11-20T05:56:22.794Z,0.73
2022-11-20T05:59:08.426Z,0.77
2022-11-20T06:01:53.849Z,0.74
2022-11-20T06:04:39.416Z,0.78
2022-11-20T06:07:25.260Z,0.91
2022-11-20T06:10:11.157Z,0.79
2022-11-20T06:12:58.722Z,0.79
2022-11-20T06:15:50.384Z,0.95
2022-11-20T06:18:36.253Z,0.91
2022-11-20T06:21:24.747Z,0.84
2022-11-20T06:24:11.578Z,0.96
2022-11-20T06:26:57.117Z,0.95
2022-11-20T06:29:42.513Z,0.87
2022-11-20T06:32:27.898Z,0.92
2022-11-20T06:35:13.325Z,0.93
2022-11-20T06:37:58.621Z,0.97
2022-11-20T06:40:44.642Z,0.91
2022-11-20T06:43:30.603Z,1.04
2022-11-20T06:46:20.364Z,0.84
2022-11-20T06:49:05.851Z,0.92
2022-11-20T06:51:51.380Z,0.85
2022-11-20T06:54:37.122Z,0.81
2022-11-20T06:57:22.532Z,0.87
2022-11-20T07:00:08.394Z,0.95
2022-11-20T07:02:53.873Z,0.94
2022-11-20T07:05:39.615Z,0.84
2022-11-20T07:08:25.824Z,0.98
2022-11-20T07:11:14.091Z,0.91
2022-11-20T07:13:59.783Z,0.92
2022-11-20T07:16:45.437Z,0.81
2022-11-20T07:19:31.271Z,1.01
2022-11-20T07:22:17.067Z,0.90
2022-11-20T07:25:02.838Z,1.00
2022-11-20T07:27:48.691Z,1.20
2022-11-20T07:30:34.269Z,1.31
2022-11-20T07:33:20.121Z,1.20
2022-11-20T07:36:06.043Z,1.36
2022-11-20T07:38:51.457Z,1.40
2022-11-20T07:41:37.110Z,1.45
2022-11-20T07:44:22.576Z,1.42
2022-11-20T07:47:07.923Z,1.39
2022-11-20T07:49:53.240Z,1.57
2022-11-20T07:52:39.095Z,1.73
2022-11-20T07:55:24.557Z,1.94
2022-11-20T07:58:09.723Z,1.88
2022-11-20T08:00:55.139Z,2.03
2022-11-20T08:03:40.665Z,1.87
2022-11-20T08:06:26.188Z,1.99
2022-11-20T08:09:11.776Z,2.06
2022-11-20T08:12:16.019Z,2.35
2022-11-20T08:15:01.353Z,2.45
2022-11-20T08:18:08.337Z,2.55
2022-11-20T08:20:52.635Z,2.76
2022-11-20T08:23:37.955Z,2.88
2022-11-20T08:26:24.236Z,3.03
2022-11-20T08:29:09.456Z,3.07
2022-11-20T08:31:54.938Z,2.80
2022-11-20T08:34:40.780Z,2.84
2022-11-20T08:37:26.196Z,2.56
2022-11-20T08:40:16.984Z,2.14
2022-11-20T08:43:05.289Z,2.41
2022-11-20T08:45:50.836Z,2.37
2022-11-20T08:48:36.586Z,2.72
2022-11-20T08:51:22.071Z,2.84
2022-11-20T08:54:07.927Z,2.60
2022-11-20T08:56:53.368Z,2.60
2022-11-20T09:00:06.391Z,2.78
2022-11-20T09:02:44.490Z,3.00
2022-11-20T09:05:30.086Z,3.07
2022-11-20T09:08:15.612Z,3.21
2022-11-20T09:11:01.035Z,3.22
2022-11-20T09:13:46.702Z,3.02
2022-11-20T09:16:32.113Z,3.20
2022-11-20T09:22:23.223Z,3.84
2022-11-20T09:25:08.992Z,4.60
2022-11-20T09:27:58.731Z,6.62
2022-11-20T09:30:44.568Z,6.66
2022-11-20T09:33:29.970Z,6.72
2022-11-20T09:36:16.857Z,6.40
2022-11-20T09:39:02.709Z,7.08
2022-11-20T09:42:06.823Z,7.89
2022-11-20T09:45:17.100Z,8.80
2022-11-20T09:48:27.678Z,12.92
2022-11-20T09:51:31.492Z,12.97
2022-11-20T09:54:27.568Z,9.94
2022-11-20T09:57:18.096Z,8.86
2022-11-20T10:00:06.471Z,10.20
2022-11-20T10:03:02.536Z,10.71
2022-11-20T10:05:55.825Z,11.27
2022-11-20T10:08:48.447Z,11.06
2022-11-20T10:12:06.790Z,10.76
2022-11-20T10:15:27.292Z,13.68
2022-11-20T10:18:38.619Z,14.97
2022-11-20T10:21:55.004Z,14.27
2022-11-20T10:24:45.623Z,15.33
2022-11-20T10:28:01.403Z,12.88
2022-11-20T10:30:58.194Z,9.48
2022-11-20T10:34:10.969Z,7.71
2022-11-20T10:37:11.484Z,6.82
2022-11-20T10:40:20.943Z,6.38
2022-11-20T10:43:32.856Z,6.62
2022-11-20T10:46:25.352Z,7.39
2022-11-20T10:49:19.908Z,7.36
2022-11-20T10:52:35.223Z,7.27
2022-11-20T10:55:46.164Z,6.93
2022-11-20T10:59:11.630Z,7.25
2022-11-20T11:01:57.248Z,7.43
2022-11-20T11:04:53.490Z,8.07
2022-11-20T11:07:41.172Z,7.58
2022-11-20T11:10:47.791Z,9.77
2022-11-20T11:16:01.714Z,10.56
2022-11-20T11:18:47.752Z,11.08
2022-11-20T11:21:33.605Z,11.39
2022-11-20T11:24:43.271Z,11.22
2022-11-20T11:27:29.506Z,12.40
2022-11-20T11:30:18.384Z,14.74
2022-11-20T11:33:26.751Z,17.12
2022-11-20T11:36:22.874Z,18.74
2022-11-20T11:39:21.893Z,16.05
2022-11-20T11:42:15.267Z,17.38
2022-11-20T11:45:08.192Z,18.68
2022-11-20T11:47:57.953Z,16.31
2022-11-20T11:50:50.340Z,17.93
2022-11-20T11:53:42.480Z,19.47
2022-11-20T11:56:29.733Z,17.74
2022-11-20T11:59:26.455Z,17.53
2022-11-20T12:02:51.135Z,18.28
2022-11-20T12:05:48.063Z,18.63
2022-11-20T12:08:54.751Z,17.83
2022-11-20T12:11:48.119Z,16.06
2022-11-20T12:14:44.164Z,17.53
2022-11-20T12:17:30.482Z,18.20
2022-11-20T12:20:16.065Z,19.23
2022-11-20T12:23:46.878Z,19.43
2022-11-20T12:26:56.001Z,20.19
2022-11-20T12:29:50.091Z,17.74
2022-11-20T12:33:13.460Z,15.85
2022-11-20T12:36:20.673Z,12.91
2022-11-20T12:39:34.710Z,10.21
2022-11-20T12:42:53.072Z,9.97
2022-11-20T12:45:55.165Z,10.06
2022-11-20T12:49:04.484Z,8.92
2022-11-20T12:52:32.605Z,8.09
2022-11-20T12:55:38.147Z,9.24
2022-11-20T12:58:28.185Z,11.31
2022-11-20T13:01:43.626Z,14.27
2022-11-20T13:04:52.630Z,16.91
2022-11-20T13:07:39.459Z,15.60
2022-11-20T13:11:01.231Z,16.69
2022-11-20T13:13:54.990Z,17.76
2022-11-20T13:16:53.464Z,17.35
2022-11-20T13:19:40.449Z,15.47
2022-11-20T13:22:42.980Z,16.06
2022-11-20T13:25:36.048Z,16.18
2022-11-20T13:28:21.712Z,16.71
2022-11-20T13:31:44.789Z,15.90
2022-11-20T13:34:30.998Z,13.88
2022-11-20T13:37:35.748Z,12.46
2022-11-20T13:40:23.567Z,11.66
2022-11-20T13:43:18.756Z,8.56
2022-11-20T13:46:07.505Z,7.37
2022-11-20T13:48:54.588Z,6.91
2022-11-20T13:51:52.390Z,5.73
2022-11-20T13:54:59.319Z,5.55
2022-11-20T13:57:58.937Z,5.25
2022-11-20T14:01:02.325Z,5.12
2022-11-20T14:06:55.276Z,5.17
2022-11-20T14:09:54.832Z,5.43
2022-11-20T14:12:40.820Z,5.41
2022-11-20T14:15:28.023Z,5.40
2022-11-20T14:18:16.760Z,5.29
2022-11-20T14:21:04.797Z,5.31
2022-11-20T14:23:54.043Z,5.08
2022-11-20T14:26:45.349Z,5.01
2022-11-20T14:29:37.510Z,5.04
2022-11-20T14:32:29.849Z,4.79
2022-11-20T14:35:26.501Z,4.67
2022-11-20T14:38:14.648Z,4.62
2022-11-20T14:41:08.485Z,4.40
2022-11-20T14:43:58.489Z,4.26
2022-11-20T14:46:46.039Z,4.42
2022-11-20T14:49:33.095Z,4.22
2022-11-20T14:52:22.090Z,4.18
2022-11-20T14:55:10.027Z,4.07
2022-11-20T14:57:58.444Z,3.85
2022-11-20T15:00:57.789Z,3.69
2022-11-20T15:03:43.932Z,3.71
2022-11-20T15:06:30.476Z,3.64
2022-11-20T15:09:16.898Z,3.42
2022-11-20T15:12:04.537Z,3.58
2022-11-20T15:14:49.845Z,3.44
2022-11-20T15:17:39.769Z,3.34
2022-11-20T15:20:32.571Z,3.50
2022-11-20T15:23:20.491Z,3.38
2022-11-20T15:26:07.444Z,3.38
2022-11-20T15:28:55.386Z,3.21
2022-11-20T15:31:44.131Z,3.15
2022-11-20T15:34:30.004Z,3.23
2022-11-20T15:37:17.053Z,3.13
2022-11-20T15:40:03.358Z,3.10
2022-11-20T15:43:08.346Z,3.16
2022-11-20T15:46:19.791Z,3.09
2022-11-20T15:49:06.540Z,3.12
2022-11-20T15:51:54.552Z,2.95
2022-11-20T15:54:40.230Z,2.88
2022-11-20T15:57:28.173Z,2.93
2022-11-20T16:00:19.311Z,2.90
2022-11-20T16:03:12.226Z,2.88
2022-11-20T16:05:58.262Z,2.88
2022-11-20T16:08:43.790Z,2.89
2022-11-20T16:11:29.943Z,2.97
2022-11-20T16:14:34.060Z,2.73
2022-11-20T16:17:39.823Z,2.71
2022-11-20T16:20:26.761Z,2.51
2022-11-20T16:23:13.652Z,2.61
2022-11-20T16:25:59.938Z,2.45
2022-11-20T16:28:47.471Z,2.35
2022-11-20T16:31:34.391Z,2.34
2022-11-20T16:34:21.066Z,2.33
2022-11-20T16:37:07.218Z,2.24
2022-11-20T16:39:52.911Z,2.16
2022-11-20T16:42:38.583Z,2.15
2022-11-20T16:45:30.059Z,2.31
2022-11-20T16:48:18.847Z,2.09
2022-11-20T16:51:04.695Z,2.04
2022-11-20T16:53:51.678Z,2.05
2022-11-20T16:56:39.035Z,1.80
2022-11-20T16:59:26.506Z,1.88
2022-11-20T17:02:11.818Z,1.82
2022-11-20T17:04:59.772Z,1.84
2022-11-20T17:07:46.316Z,1.83
2022-11-20T17:10:32.154Z,1.65
2022-11-20T17:13:18.049Z,1.77
2022-11-20T17:16:05.648Z,1.86
2022-11-20T17:18:51.310Z,1.84
2022-11-20T17:21:37.899Z,1.61
2022-11-20T17:24:26.399Z,1.67
2022-11-20T17:27:14.763Z,1.68
2022-11-20T17:30:00.150Z,1.70
2022-11-20T17:32:47.000Z,1.67
2022-11-20T17:35:32.339Z,1.62
2022-11-20T17:38:17.913Z,1.70
2022-11-20T17:41:05.192Z,1.37
2022-11-20T17:43:53.904Z,1.27
2022-11-20T17:46:39.310Z,1.23
2022-11-20T17:49:24.752Z,1.06
2022-11-20T17:52:10.270Z,0.94
2022-11-20T17:54:57.540Z,0.81
2022-11-20T17:57:57.887Z,0.74
2022-11-20T18:00:43.374Z,0.70
2022-11-20T18:03:29.079Z,0.63
2022-11-20T18:06:19.991Z,0.55
2022-11-20T18:09:06.812Z,0.69
2022-11-20T18:11:52.586Z,0.51
2022-11-20T18:14:38.076Z,0.47
2022-11-20T18:17:23.654Z,0.33
2022-11-20T18:23:14.688Z,0.19
2022-11-20T18:26:00.830Z,0.27
2022-11-20T18:28:46.761Z,0.22
2022-11-20T18:31:32.759Z,0.14
2022-11-20T18:34:18.263Z,0.15
2022-11-20T18:37:03.668Z,0.11
2022-11-20T18:39:50.232Z,0.07
2022-11-20T18:42:56.018Z,0.12
2022-11-20T18:45:41.652Z,0.03
2022-11-20T18:48:27.328Z,0.02
2022-11-20T18:51:16.105Z,-0.03
2022-11-20T18:54:03.549Z,-0.07
2022-11-20T18:56:49.394Z,0.06
2022-11-20T18:59:34.676Z,0.24
2022-11-20T19:02:21.145Z,0.28
2022-11-20T19:05:06.936Z,0.37
2022-11-20T19:07:52.335Z,0.56
2022-11-20T19:10:37.926Z,0.56
2022-11-20T19:13:23.819Z,0.59
2022-11-20T19:16:14.559Z,0.49
2022-11-20T19:19:03.398Z,0.54
2022-11-20T19:21:49.240Z,0.37
2022-11-20T19:24:34.653Z,0.27
2022-11-20T19:27:19.895Z,0.23
2022-11-20T19:30:05.547Z,0.28
2022-11-20T19:32:51.273Z,0.33
2022-11-20T19:35:36.983Z,0.30
2022-11-20T19:38:22.673Z,0.40
2022-11-20T19:41:09.121Z,0.45
2022-11-20T19:43:59.102Z,0.38
2022-11-20T19:46:44.951Z,0.55
2022-11-20T19:49:30.257Z,0.47
2022-11-20T19:52:15.790Z,0.45
2022-11-20T19:55:01.008Z,0.52
2022-11-20T19:57:46.378Z,0.57
2022-11-20T20:00:32.935Z,0.59
2022-11-20T20:03:18.884Z,0.51
2022-11-20T20:06:05.944Z,0.58
2022-11-20T20:09:00.631Z,0.59
2022-11-20T20:11:47.071Z,0.53
2022-11-20T20:14:32.819Z,0.46
2022-11-20T20:17:18.178Z,0.53
2022-11-20T20:20:04.109Z,0.47
2022-11-20T20:22:49.503Z,0.63
2022-11-20T20:25:37.351Z,0.62
2022-11-20T20:28:22.973Z,0.44
2022-11-20T20:31:10.929Z,0.40
2022-11-20T20:33:56.966Z,0.41
2022-11-20T20:36:42.693Z,0.45
2022-11-20T20:39:29.128Z,0.44
2022-11-20T20:42:14.615Z,0.33
2022-11-20T20:45:10.875Z,0.23
2022-11-20T20:47:56.430Z,0.20
2022-11-20T20:50:41.944Z,0.31
2022-11-20T20:53:27.557Z,0.40
2022-11-20T20:56:13.079Z,0.27
2022-11-20T20:58:58.816Z,0.17
2022-11-20T21:01:44.432Z,0.29
2022-11-20T21:04:30.119Z,0.16
2022-11-20T21:07:15.865Z,0.26
2022-11-20T21:10:01.554Z,0.05
2022-11-20T21:12:47.201Z,0.27
2022-11-20T21:15:32.530Z,0.26
2022-11-20T21:18:19.914Z,0.35
2022-11-20T21:21:26.307Z,0.21
2022-11-20T21:24:11.767Z,0.22
2022-11-20T21:26:57.955Z,0.08
2022-11-20T21:29:43.308Z,0.18
2022-11-20T21:32:28.481Z,0.16
2022-11-20T21:35:14.145Z,0.31
2022-11-20T21:37:59.589Z,0.05
2022-11-20T21:40:45.147Z,-0.04
2022-11-20T21:43:30.525Z,0.06
2022-11-20T21:46:17.312Z,0.15
2022-11-20T21:49:03.737Z,0.11
2022-11-20T21:51:49.524Z,-0.08
2022-11-20T21:54:36.129Z,0.00
2022-11-20T21:57:21.839Z,-0.08
2022-11-20T22:00:07.787Z,-0.30
2022-11-20T22:02:53.042Z,-0.11
2022-11-20T22:05:39.006Z,-0.18
2022-11-20T22:08:25.892Z,-0.23
2022-11-20T22:11:16.495Z,-0.12
2022-11-20T22:14:20.617Z,-0.20
2022-11-20T22:17:06.128Z,-0.11
2022-11-20T22:19:51.289Z,0.05
2022-11-20T22:22:36.759Z,-0.05
2022-11-20T22:25:22.123Z,-0.08
2022-11-20T22:28:07.647Z,0.11
2022-11-20T22:30:57.943Z,-0.07
2022-11-20T22:33:43.334Z,-0.06
2022-11-20T22:36:30.142Z,-0.20
2022-11-20T22:39:15.806Z,-0.14
2022-11-20T22:42:01.046Z,-0.33
2022-11-20T22:44:46.426Z,-0.21
2022-11-20T22:47:31.930Z,-0.07
2022-11-20T22:50:17.366Z,-0.34
2022-11-20T22:53:02.777Z,-0.13
2022-11-20T22:55:51.281Z,-0.25
2022-11-20T22:58:37.309Z,-0.07
2022-11-20T23:01:25.119Z,-0.18
2022-11-20T23:04:11.585Z,-0.31
2022-11-20T23:06:57.035Z,-0.21
2022-11-20T23:09:42.617Z,-0.14
2022-11-20T23:12:28.173Z,-0.23
2022-11-20T23:15:13.774Z,-0.11
2022-11-20T23:17:59.114Z,-0.54
2022-11-20T23:20:44.631Z,-0.23
2022-11-20T23:23:30.323Z,-0.42
2022-11-20T23:26:17.340Z,-0.30
2022-11-20T23:29:04.519Z,-0.65
2022-11-20T23:31:50.283Z,-0.75
2022-11-20T23:34:35.767Z,-0.71
2022-11-20T23:37:21.048Z,-0.86
2022-11-20T23:40:07.507Z,-0.72
2022-11-20T23:43:11.852Z,-0.73
2022-11-20T23:45:59.440Z,-0.84
2022-11-20T23:48:45.621Z,-0.72
2022-11-20T23:51:31.363Z,-0.56
2022-11-20T23:54:16.673Z,-0.73
2022-11-20T23:57:02.052Z,-0.72
2022-11-20T23:59:47.418Z,-0.93
